Time;durP1;ratioP1;P1;durP2;ratioP2;P2;SDS_P1;SDS_P2;PMS_P1;PMS_P2;Temp;Humidity;BMP_temperature;BMP_pressure;BME280_temperature;BME280_humidity;BME280_pressure;Samples;Min_cycle;Max_cycle;Signal;HPM_P1;HPM_P2
2023/12/07 00:07:23;;;;;;;13.97;7.53;;;;;;;4.53;96.78;100847.28;31052708;28;20053;-75
2023/12/07 00:38:23;;;;;;;18.67;7.90;;;;;;;4.63;97.86;100852.06;31046622;28;20129;-75
2023/12/07 00:53:25;;;;;;;20.67;8.27;;;;;;;4.67;100.00;100855.59;31067567;28;20085;-73
2023/12/07 01:08:27;;;;;;;17.77;8.07;;;;;;;4.53;100.00;100839.22;31070237;28;20053;-73
2023/12/07 01:23:29;;;;;;;17.97;7.80;;;;;;;4.53;100.00;100836.53;31058652;28;20061;-74
2023/12/07 01:38:31;;;;;;;17.30;7.17;;;;;;;4.73;100.00;100819.94;31066330;28;20050;-74
2023/12/07 01:53:34;;;;;;;18.47;7.07;;;;;;;4.66;100.00;100816.41;31031446;28;20140;-76
2023/12/07 02:08:41;;;;;;;16.93;7.33;;;;;;;4.79;100.00;100806.97;31041572;28;20121;-74
2023/12/07 02:23:46;;;;;;;13.63;6.63;;;;;;;4.87;100.00;100803.28;31055285;28;20054;-74
2023/12/07 02:38:58;;;;;;;20.20;8.60;;;;;;;5.02;100.00;100802.31;31052541;28;20058;-75
2023/12/07 02:54:00;;;;;;;17.70;6.63;;;;;;;4.92;100.00;100802.19;31027878;28;20065;-74
2023/12/07 03:09:03;;;;;;;15.07;7.37;;;;;;;4.81;100.00;100820.84;31050061;28;20056;-74
2023/12/07 03:24:08;;;;;;;19.13;8.13;;;;;;;5.21;100.00;100822.19;31037854;28;20052;-74
2023/12/07 03:39:10;;;;;;;13.40;7.63;;;;;;;5.00;100.00;100815.34;31053940;28;20074;-76
2023/12/07 03:54:12;;;;;;;14.97;6.80;;;;;;;5.22;100.00;100812.97;31014094;28;20042;-75
2023/12/07 04:09:14;;;;;;;14.87;8.50;;;;;;;5.09;100.00;100810.50;31055285;28;20050;-74
2023/12/07 04:24:16;;;;;;;23.27;8.97;;;;;;;5.03;100.00;100816.56;31056513;28;20042;-74
2023/12/07 04:39:18;;;;;;;26.73;12.80;;;;;;;5.11;100.00;100818.22;31038760;28;20574;-74
2023/12/07 04:54:20;;;;;;;23.47;12.17;;;;;;;5.01;100.00;100818.81;31078075;28;20530;-75
2023/12/07 05:09:22;;;;;;;21.00;11.83;;;;;;;5.13;100.00;100822.09;31044203;28;20054;-74
2023/12/07 05:24:24;;;;;;;21.57;10.00;;;;;;;4.95;100.00;100831.84;31046664;28;20046;-74
2023/12/07 05:39:26;;;;;;;23.20;10.50;;;;;;;5.08;100.00;100841.25;31075279;28;20092;-73
2023/12/07 05:54:28;;;;;;;20.90;9.30;;;;;;;5.02;100.00;100821.16;31070546;28;20503;-73
2023/12/07 06:09:30;;;;;;;15.57;8.37;;;;;;;5.06;100.00;100830.06;31047173;28;20590;-74
2023/12/07 06:24:32;;;;;;;15.00;7.97;;;;;;;5.12;100.00;100847.47;31032089;28;20053;-75
2023/12/07 06:39:34;;;;;;;9.23;5.23;;;;;;;5.31;100.00;100837.72;31051994;28;20054;-75
2023/12/07 06:54:36;;;;;;;7.90;4.30;;;;;;;5.12;100.00;100842.06;31041742;28;20050;-78
2023/12/07 07:09:38;;;;;;;7.00;3.60;;;;;;;4.96;100.00;100838.75;31055544;28;20050;-76
2023/12/07 07:24:40;;;;;;;5.43;3.43;;;;;;;5.17;100.00;100843.69;31072444;28;20054;-74
2023/12/07 07:39:42;;;;;;;8.67;4.90;;;;;;;5.28;100.00;100849.97;31058262;28;20117;-75
2023/12/07 07:54:46;;;;;;;11.03;6.00;;;;;;;5.34;99.86;100856.59;31017952;28;20050;-77
2023/12/07 08:09:48;;;;;;;9.23;5.10;;;;;;;5.28;98.85;100868.03;31033738;28;20093;-74
2023/12/07 08:24:50;;;;;;;7.27;4.37;;;;;;;5.16;97.63;100869.03;31051730;28;20049;-77
2023/12/07 08:40:06;;;;;;;6.83;4.47;;;;;;;5.29;99.73;100874.97;31048099;28;20153;-73
2023/12/07 08:55:08;;;;;;;7.80;4.73;;;;;;;5.29;98.46;100856.91;31103428;28;20111;-74
2023/12/07 09:10:11;;;;;;;5.90;4.30;;;;;;;5.23;98.83;100854.88;31068106;28;20058;-73
2023/12/07 09:25:15;;;;;;;6.43;3.77;;;;;;;5.45;99.50;100832.50;31066732;28;20058;-80
2023/12/07 09:40:22;;;;;;;7.33;3.33;;;;;;;5.45;97.57;100821.72;31100299;28;20112;-77
2023/12/07 09:55:25;;;;;;;5.83;3.97;;;;;;;5.07;98.94;100812.78;31114306;28;20050;-81
2023/12/07 10:10:27;;;;;;;6.20;4.17;;;;;;;4.86;100.00;100812.47;31068498;28;20058;-84
2023/12/07 10:25:31;;;;;;;6.83;4.80;;;;;;;5.33;100.00;100803.91;31065723;28;20055;-81
2023/12/07 10:40:39;;;;;;;8.10;4.43;;;;;;;5.19;100.00;100794.88;31090234;28;20050;-81
2023/12/07 10:56:00;;;;;;;8.03;4.87;;;;;;;5.57;100.00;100791.09;31081168;28;20137;-79
2023/12/07 11:11:36;;;;;;;12.07;6.13;;;;;;;5.67;100.00;100775.03;31086735;28;20161;-75
2023/12/07 11:26:41;;;;;;;8.10;5.20;;;;;;;5.48;100.00;100772.53;31069136;28;20069;-84
2023/12/07 11:41:45;;;;;;;9.00;5.60;;;;;;;5.66;100.00;100768.13;31064634;28;20070;-75
2023/12/07 11:56:54;;;;;;;11.63;6.47;;;;;;;5.80;100.00;100779.06;31033781;28;20136;-75
2023/12/07 12:12:00;;;;;;;9.20;6.37;;;;;;;5.79;100.00;100771.34;31074548;28;20042;-80
2023/12/07 12:27:04;;;;;;;16.27;7.07;;;;;;;5.63;100.00;100779.66;31058011;28;20522;-80
2023/12/07 12:42:06;;;;;;;10.33;6.03;;;;;;;5.42;100.00;100776.72;31123644;28;20599;-74
2023/12/07 12:57:09;;;;;;;10.47;6.57;;;;;;;5.42;100.00;100779.41;31071593;28;20446;-75
2023/12/07 13:12:11;;;;;;;9.47;5.27;;;;;;;5.50;100.00;100775.63;31128591;28;20046;-73
2023/12/07 13:27:15;;;;;;;9.37;6.30;;;;;;;5.46;100.00;100777.50;31138458;28;20045;-79
2023/12/07 13:42:17;;;;;;;7.80;5.13;;;;;;;5.39;100.00;100778.22;31059196;28;20101;-74
2023/12/07 13:57:20;;;;;;;9.70;6.57;;;;;;;5.28;100.00;100789.97;31012125;28;20069;-74
2023/12/07 14:12:23;;;;;;;9.70;5.67;;;;;;;5.57;100.00;100781.09;31111446;28;20064;-79
2023/12/07 14:27:25;;;;;;;12.57;6.87;;;;;;;5.32;100.00;100774.66;31056212;28;20423;-76
2023/12/07 14:42:27;;;;;;;10.17;4.77;;;;;;;5.24;100.00;100762.22;31123390;28;20046;-78
2023/12/07 14:57:30;;;;;;;9.60;5.37;;;;;;;5.25;100.00;100761.88;31042554;28;20050;-82
2023/12/07 15:12:32;;;;;;;9.77;4.43;;;;;;;5.25;100.00;100763.78;31104409;28;20046;-83
2023/12/07 15:27:35;;;;;;;7.13;4.93;;;;;;;5.23;100.00;100760.69;31045727;28;20046;-78
2023/12/07 15:42:40;;;;;;;9.73;4.33;;;;;;;5.60;100.00;100761.53;31051912;28;20053;-77
2023/12/07 15:57:43;;;;;;;9.27;6.20;;;;;;;5.48;100.00;100767.13;31091566;28;20054;-81
2023/12/07 16:12:45;;;;;;;11.43;6.30;;;;;;;5.57;100.00;100770.34;31156924;28;20385;-81
2023/12/07 16:27:47;;;;;;;11.83;6.40;;;;;;;5.66;100.00;100762.75;30995658;28;20046;-78
2023/12/07 16:42:49;;;;;;;12.80;6.97;;;;;;;5.87;100.00;100772.97;31116400;28;20073;-79
2023/12/07 16:57:51;;;;;;;17.00;8.73;;;;;;;5.57;100.00;100781.09;31099994;28;20084;-84
2023/12/07 17:12:55;;;;;;;13.17;7.13;;;;;;;5.59;100.00;100794.97;31142611;28;20053;-85
2023/12/07 17:27:57;;;;;;;12.83;6.13;;;;;;;5.42;100.00;100774.78;31113548;28;20084;-80
2023/12/07 17:43:01;;;;;;;15.23;8.43;;;;;;;4.89;100.00;100749.88;31089418;28;20050;-79
2023/12/07 17:58:03;;;;;;;15.50;9.27;;;;;;;5.30;100.00;100763.47;31020679;28;20050;-78
2023/12/07 18:13:07;;;;;;;14.83;7.90;;;;;;;4.91;100.00;100755.66;31102900;28;20080;-80
2023/12/07 18:28:09;;;;;;;14.57;8.00;;;;;;;5.33;100.00;100749.28;31075709;28;20050;-75
2023/12/07 18:43:12;;;;;;;15.07;8.90;;;;;;;5.53;100.00;100761.44;31094095;28;20054;-77
2023/12/07 18:58:14;;;;;;;11.90;6.97;;;;;;;5.34;100.00;100766.97;31110774;28;20073;-76
2023/12/07 19:13:16;;;;;;;12.43;6.60;;;;;;;5.52;100.00;100745.63;31045263;28;20050;-76
2023/12/07 19:28:18;;;;;;;10.50;6.67;;;;;;;5.44;100.00;100728.63;31030734;28;20046;-75
2023/12/07 19:43:20;;;;;;;13.30;6.80;;;;;;;5.18;100.00;100734.09;30989345;28;20150;-75
2023/12/07 19:58:22;;;;;;;11.00;6.53;;;;;;;5.11;100.00;100740.94;31083627;28;20471;-76
2023/12/07 20:13:24;;;;;;;17.03;8.40;;;;;;;5.00;100.00;100726.56;31034684;28;20079;-78
2023/12/07 20:28:26;;;;;;;14.17;8.17;;;;;;;4.96;100.00;100733.81;31079092;28;20141;-76
2023/12/07 20:43:30;;;;;;;14.17;6.67;;;;;;;5.04;100.00;100732.78;31111062;28;20062;-85
2023/12/07 20:58:32;;;;;;;11.80;7.13;;;;;;;4.82;100.00;100720.19;31051708;28;20050;-85
2023/12/07 21:13:34;;;;;;;16.77;7.60;;;;;;;4.76;100.00;100711.66;31069064;28;20401;-83
2023/12/07 21:28:37;;;;;;;15.17;7.10;;;;;;;4.69;100.00;100726.94;31164769;28;20504;-82
2023/12/07 21:43:39;;;;;;;10.37;6.27;;;;;;;4.71;100.00;100703.91;31107500;28;20120;-75
2023/12/07 21:58:41;;;;;;;11.03;5.73;;;;;;;4.74;100.00;100707.75;31115809;28;20088;-73
2023/12/07 22:13:44;;;;;;;17.10;7.53;;;;;;;4.82;100.00;100720.19;31051888;28;20062;-75
2023/12/07 22:28:46;;;;;;;15.27;7.20;;;;;;;4.74;100.00;100697.00;31016279;28;20405;-84
2023/12/07 22:43:48;;;;;;;13.13;7.10;;;;;;;4.34;100.00;100717.19;31034013;28;20424;-84
2023/12/07 22:58:50;;;;;;;14.73;6.13;;;;;;;4.50;100.00;100702.81;31036949;28;20038;-83
2023/12/07 23:13:52;;;;;;;8.77;5.27;;;;;;;4.47;100.00;100695.50;31128737;28;20061;-84
2023/12/07 23:28:54;;;;;;;8.67;6.60;;;;;;;4.47;100.00;100684.75;31105352;28;20045;-83
2023/12/07 23:43:56;;;;;;;5.07;3.80;;;;;;;4.27;100.00;100695.56;31073387;28;20047;-81
2023/12/07 23:58:58;;;;;;;12.10;6.37;;;;;;;4.56;100.00;100685.22;31018586;28;20046;-82
